createdAt,value
2023-03-14T00:00:44.556Z,98678.19
2023-03-14T00:03:17.727Z,98683.16
2023-03-14T00:05:50.950Z,98672.94
2023-03-14T00:08:25.945Z,98654.14
2023-03-14T00:10:59.882Z,98652.48
2023-03-14T00:13:33.109Z,98651.90
2023-03-14T00:16:08.335Z,98640.64
2023-03-14T00:18:42.462Z,98635.70
2023-03-14T00:21:16.019Z,98631.45
2023-03-14T00:23:49.208Z,98626.40
2023-03-14T00:26:23.657Z,98619.34
2023-03-14T00:28:57.128Z,98618.67
2023-03-14T00:31:30.456Z,98608.68
2023-03-14T00:34:03.792Z,98606.31
2023-03-14T00:36:37.806Z,98592.80
2023-03-14T00:39:11.986Z,98600.96
2023-03-14T00:41:45.221Z,98602.53
2023-03-14T00:44:18.500Z,98587.91
2023-03-14T00:46:51.722Z,98596.52
2023-03-14T00:49:25.323Z,98593.83
2023-03-14T00:51:58.546Z,98595.72
2023-03-14T00:54:31.762Z,98593.45
2023-03-14T00:57:05.095Z,98583.28
2023-03-14T00:59:38.798Z,98579.25
2023-03-14T01:02:12.004Z,98563.30
2023-03-14T01:04:45.153Z,98556.58
2023-03-14T01:07:18.820Z,98562.43
2023-03-14T01:12:36.146Z,98549.43
2023-03-14T01:15:11.082Z,98549.70
2023-03-14T01:17:44.961Z,98573.59
2023-03-14T01:20:19.357Z,98571.13
2023-03-14T01:22:52.317Z,98554.81
2023-03-14T01:25:25.377Z,98548.67
2023-03-14T01:27:58.671Z,98534.89
2023-03-14T01:30:32.225Z,98509.31
2023-03-14T01:33:08.624Z,98496.91
2023-03-14T01:35:41.709Z,98482.36
2023-03-14T01:38:14.951Z,98500.78
2023-03-14T01:40:48.174Z,98501.27
2023-03-14T01:43:24.736Z,98487.81
2023-03-14T01:46:28.524Z,98489.12
2023-03-14T01:49:08.684Z,98483.81
2023-03-14T01:51:47.364Z,98487.39
2023-03-14T01:54:25.506Z,98490.59
2023-03-14T01:57:02.653Z,98499.95
2023-03-14T01:59:36.853Z,98482.28
2023-03-14T02:02:12.656Z,98477.58
2023-03-14T02:04:46.321Z,98462.08
2023-03-14T02:07:25.409Z,98453.61
2023-03-14T02:10:00.312Z,98441.03
2023-03-14T02:12:36.140Z,98449.91
2023-03-14T02:15:15.115Z,98446.28
2023-03-14T02:18:00.056Z,98440.30
2023-03-14T02:20:41.311Z,98425.94
2023-03-14T02:23:15.545Z,98422.45
2023-03-14T02:25:54.052Z,98406.83
2023-03-14T02:28:27.682Z,98405.22
2023-03-14T02:31:02.502Z,98396.92
2023-03-14T02:33:37.726Z,98399.42
2023-03-14T02:36:14.457Z,98400.44
2023-03-14T02:38:51.681Z,98402.25
2023-03-14T02:41:25.188Z,98377.73
2023-03-14T02:43:59.898Z,98373.41
2023-03-14T02:46:33.640Z,98381.20
2023-03-14T02:49:09.022Z,98377.84
2023-03-14T02:51:45.664Z,98352.38
2023-03-14T02:54:20.954Z,98377.96
2023-03-14T02:56:54.356Z,98384.35
2023-03-14T02:59:29.498Z,98371.50
2023-03-14T03:02:04.093Z,98380.23
2023-03-14T03:04:37.444Z,98393.21
2023-03-14T03:07:10.742Z,98388.23
2023-03-14T03:09:43.673Z,98388.61
2023-03-14T03:12:16.965Z,98380.44
2023-03-14T03:14:50.393Z,98354.13
2023-03-14T03:17:26.521Z,98349.12
2023-03-14T03:20:01.566Z,98346.61
2023-03-14T03:22:35.159Z,98363.23
2023-03-14T03:25:10.618Z,98359.97
2023-03-14T03:27:43.915Z,98356.55
2023-03-14T03:30:18.714Z,98343.44
2023-03-14T03:32:52.360Z,98340.82
2023-03-14T03:35:25.391Z,98282.12
2023-03-14T03:38:00.096Z,98303.53
2023-03-14T03:40:34.018Z,98289.91
2023-03-14T03:43:07.198Z,98289.05
2023-03-14T03:45:41.818Z,98313.08
2023-03-14T03:48:16.434Z,98294.37
2023-03-14T03:50:50.276Z,98295.42
2023-03-14T03:53:33.099Z,98279.33
2023-03-14T03:55:59.713Z,98314.59
2023-03-14T03:58:32.909Z,98274.48
2023-03-14T04:01:06.260Z,98295.08
2023-03-14T04:03:40.295Z,98274.77
2023-03-14T04:06:15.290Z,98262.98
2023-03-14T04:08:50.072Z,98272.55
2023-03-14T04:11:43.184Z,98272.42
2023-03-14T04:14:30.180Z,98260.55
2023-03-14T04:17:10.727Z,98283.72
2023-03-14T04:19:43.958Z,98280.48
2023-03-14T04:22:17.165Z,98285.73
2023-03-14T04:24:52.193Z,98254.23
2023-03-14T04:27:26.511Z,98238.25
2023-03-14T04:30:00.550Z,98272.55
2023-03-14T04:32:50.543Z,98233.38
2023-03-14T04:35:25.715Z,98243.73
2023-03-14T04:38:00.578Z,98240.45
2023-03-14T04:40:35.224Z,98242.08
2023-03-14T04:43:11.250Z,98219.19
2023-03-14T04:45:46.483Z,98238.99
2023-03-14T04:48:20.341Z,98209.09
2023-03-14T04:50:54.174Z,98238.59
2023-03-14T04:53:27.468Z,98181.39
2023-03-14T04:56:02.252Z,98222.70
2023-03-14T04:58:37.026Z,98183.50
2023-03-14T05:01:11.264Z,98174.98
2023-03-14T05:03:49.011Z,98189.58
2023-03-14T05:06:23.850Z,98183.62
2023-03-14T05:09:06.203Z,98176.78
2023-03-14T05:11:57.026Z,98183.70
2023-03-14T05:14:40.806Z,98182.88
2023-03-14T05:17:17.812Z,98200.86
2023-03-14T05:19:58.158Z,98177.16
2023-03-14T05:22:35.645Z,98171.95
2023-03-14T05:25:16.047Z,98173.08
2023-03-14T05:28:00.029Z,98184.29
2023-03-14T05:30:46.868Z,98193.16
2023-03-14T05:33:27.266Z,98176.18
2023-03-14T05:36:14.918Z,98205.37
2023-03-14T05:38:49.487Z,98199.34
2023-03-14T05:44:06.214Z,98176.23
2023-03-14T05:46:49.522Z,98187.30
2023-03-14T05:49:34.986Z,98228.36
2023-03-14T05:52:18.388Z,98217.41
2023-03-14T05:54:55.645Z,98216.73
2023-03-14T05:57:48.537Z,98173.27
2023-03-14T06:00:29.404Z,98216.27
2023-03-14T06:03:08.317Z,98240.52
2023-03-14T06:05:42.585Z,98230.47
2023-03-14T06:08:18.033Z,98211.23
2023-03-14T06:10:52.404Z,98172.90
2023-03-14T06:13:27.436Z,98231.43
2023-03-14T06:16:00.820Z,98174.33
2023-03-14T06:18:37.729Z,98198.20
2023-03-14T06:21:12.964Z,98187.99
2023-03-14T06:23:46.282Z,98210.40
2023-03-14T06:26:19.834Z,98177.91
2023-03-14T06:28:55.798Z,98179.02
2023-03-14T06:31:29.169Z,98173.34
2023-03-14T06:34:10.275Z,98170.11
2023-03-14T06:36:57.474Z,98207.86
2023-03-14T06:39:31.583Z,98189.71
2023-03-14T06:42:08.028Z,98189.69
2023-03-14T06:44:43.402Z,98168.25
2023-03-14T06:47:17.446Z,98157.97
2023-03-14T06:49:54.668Z,98185.59
2023-03-14T06:52:30.275Z,98173.31
2023-03-14T06:55:03.823Z,98178.73
2023-03-14T06:57:38.645Z,98203.69
2023-03-14T07:00:15.821Z,98181.19
2023-03-14T07:02:49.728Z,98161.26
2023-03-14T07:05:24.805Z,98179.37
2023-03-14T07:07:58.509Z,98187.28
2023-03-14T07:10:35.716Z,98177.03
2023-03-14T07:13:09.246Z,98185.69
2023-03-14T07:15:44.438Z,98159.26
2023-03-14T07:18:17.897Z,98215.05
2023-03-14T07:20:51.692Z,98220.27
2023-03-14T07:23:25.634Z,98239.34
2023-03-14T07:26:00.041Z,98198.16
2023-03-14T07:28:37.658Z,98198.28
2023-03-14T07:31:12.852Z,98219.90
2023-03-14T07:33:46.897Z,98165.84
2023-03-14T07:36:22.302Z,98156.63
2023-03-14T07:38:55.731Z,98182.58
2023-03-14T07:41:39.955Z,98200.78
2023-03-14T07:44:30.659Z,98162.38
2023-03-14T07:47:08.109Z,98140.85
2023-03-14T07:49:41.890Z,98161.66
2023-03-14T07:52:15.398Z,98198.02
2023-03-14T07:54:48.705Z,98188.78
2023-03-14T07:57:22.154Z,98183.83
2023-03-14T07:59:55.438Z,98193.38
2023-03-14T08:02:28.927Z,98202.98
2023-03-14T08:05:02.374Z,98186.78
2023-03-14T08:07:39.036Z,98173.23
2023-03-14T08:10:15.780Z,98161.25
2023-03-14T08:12:49.206Z,98181.02
2023-03-14T08:15:22.865Z,98175.09
2023-03-14T08:17:56.642Z,98197.41
2023-03-14T08:20:35.594Z,98218.23
2023-03-14T08:23:09.005Z,98180.42
2023-03-14T08:25:42.651Z,98182.20
2023-03-14T08:28:16.126Z,98213.34
2023-03-14T08:30:49.646Z,98190.03
2023-03-14T08:33:23.084Z,98186.63
2023-03-14T08:38:43.753Z,98211.00
2023-03-14T08:41:20.007Z,98199.69
2023-03-14T08:43:53.248Z,98179.80
2023-03-14T08:46:26.561Z,98217.74
2023-03-14T08:48:59.778Z,98184.78
2023-03-14T08:51:36.153Z,98181.52
2023-03-14T08:54:12.104Z,98181.46
2023-03-14T08:56:45.258Z,98215.27
2023-03-14T08:59:19.383Z,98150.80
2023-03-14T09:01:52.868Z,98143.05
2023-03-14T09:04:26.164Z,98192.27
2023-03-14T09:06:59.969Z,98140.56
2023-03-14T09:09:36.591Z,98167.36
2023-03-14T09:12:10.249Z,98194.16
2023-03-14T09:14:43.477Z,98146.03
2023-03-14T09:17:16.820Z,98164.37
2023-03-14T09:19:49.971Z,98179.15
2023-03-14T09:22:23.511Z,98170.63
2023-03-14T09:24:57.786Z,98213.83
2023-03-14T09:27:31.060Z,98222.62
2023-03-14T09:30:09.803Z,98158.86
2023-03-14T09:32:42.930Z,98204.73
2023-03-14T09:35:16.162Z,98232.39
2023-03-14T09:37:49.689Z,98183.99
2023-03-14T09:40:24.886Z,98209.96
2023-03-14T09:42:59.948Z,98225.59
2023-03-14T09:45:39.202Z,98194.50
2023-03-14T09:48:17.277Z,98179.73
2023-03-14T09:50:53.904Z,98182.34
2023-03-14T09:53:30.585Z,98233.21
2023-03-14T09:56:09.539Z,98191.75
2023-03-14T09:58:45.185Z,98201.99
2023-03-14T10:01:21.616Z,98205.48
2023-03-14T10:03:58.241Z,98170.91
2023-03-14T10:06:36.855Z,98218.36
2023-03-14T10:09:13.765Z,98157.89
2023-03-14T10:11:47.695Z,98252.84
2023-03-14T10:14:32.674Z,98226.00
2023-03-14T10:17:14.695Z,98157.77
2023-03-14T10:19:59.332Z,98193.20
2023-03-14T10:25:32.358Z,98182.48
2023-03-14T10:28:08.178Z,98186.15
2023-03-14T10:30:47.135Z,98182.31
2023-03-14T10:33:25.656Z,98172.75
2023-03-14T10:36:01.383Z,98183.84
2023-03-14T10:38:39.579Z,98231.94
2023-03-14T10:41:22.770Z,98156.91
2023-03-14T10:43:59.018Z,98177.53
2023-03-14T10:46:39.339Z,98178.28
2023-03-14T10:49:37.113Z,98172.27
2023-03-14T10:52:35.739Z,98184.54
2023-03-14T10:55:03.926Z,98144.08
2023-03-14T10:57:41.541Z,98129.57
2023-03-14T11:00:18.122Z,98133.17
2023-03-14T11:03:07.492Z,98157.70
2023-03-14T11:05:44.636Z,98145.94
2023-03-14T11:08:21.720Z,98144.48
2023-03-14T11:10:58.549Z,98129.86
2023-03-14T11:13:37.869Z,98140.14
2023-03-14T11:16:14.783Z,98140.33
2023-03-14T11:19:19.240Z,98186.10
2023-03-14T11:21:56.820Z,98164.70
2023-03-14T11:24:44.714Z,98140.73
2023-03-14T11:27:23.245Z,98152.92
2023-03-14T11:30:02.881Z,98150.41
2023-03-14T11:32:46.531Z,98125.44
2023-03-14T11:35:24.998Z,98142.84
2023-03-14T11:38:04.351Z,98153.19
2023-03-14T11:40:36.697Z,98141.99
2023-03-14T11:43:14.890Z,98166.34
2023-03-14T11:45:50.695Z,98181.05
2023-03-14T11:48:36.486Z,98124.08
2023-03-14T11:51:13.633Z,98165.55
2023-03-14T11:53:55.820Z,98147.41
2023-03-14T11:56:38.140Z,98151.70
2023-03-14T11:59:15.458Z,98165.52
2023-03-14T12:01:59.363Z,98161.21
2023-03-14T12:04:55.308Z,98151.64
2023-03-14T12:07:36.455Z,98187.87
2023-03-14T12:10:10.910Z,98192.20
2023-03-14T12:12:44.722Z,98206.98
2023-03-14T12:15:23.965Z,98177.68
2023-03-14T12:17:59.335Z,98197.66
2023-03-14T12:20:32.909Z,98199.45
2023-03-14T12:23:14.478Z,98160.50
2023-03-14T12:25:46.439Z,98207.95
2023-03-14T12:28:24.183Z,98169.98
2023-03-14T12:30:57.444Z,98242.64
2023-03-14T12:33:36.150Z,98199.36
2023-03-14T12:36:51.813Z,98181.17
2023-03-14T12:39:39.295Z,98159.53
2023-03-14T12:42:14.973Z,98165.50
2023-03-14T12:44:51.111Z,98176.64
2023-03-14T12:48:00.166Z,98186.18
2023-03-14T12:50:42.734Z,98153.27
2023-03-14T12:54:03.984Z,98149.59
2023-03-14T12:57:02.792Z,98182.41
2023-03-14T12:59:43.701Z,98180.80
2023-03-14T13:02:29.800Z,98179.94
2023-03-14T13:05:13.777Z,98216.15
2023-03-14T13:08:12.330Z,98213.64
2023-03-14T13:10:50.133Z,98199.02
2023-03-14T13:13:25.117Z,98178.27
2023-03-14T13:16:01.446Z,98174.85
2023-03-14T13:21:27.628Z,98166.39
2023-03-14T13:24:06.110Z,98193.17
2023-03-14T13:26:43.522Z,98157.73
2023-03-14T13:29:21.973Z,98194.92
2023-03-14T13:31:58.585Z,98176.78
2023-03-14T13:34:38.168Z,98163.83
2023-03-14T13:37:21.157Z,98172.49
2023-03-14T13:39:56.683Z,98158.69
2023-03-14T13:42:32.017Z,98152.65
2023-03-14T13:45:13.237Z,98202.00
2023-03-14T13:47:49.399Z,98165.61
2023-03-14T13:50:22.840Z,98231.33
2023-03-14T13:53:00.272Z,98182.10
2023-03-14T13:58:24.662Z,98176.97
2023-03-14T14:01:04.761Z,98172.63
2023-03-14T14:03:42.866Z,98195.92
2023-03-14T14:06:28.928Z,98198.55
2023-03-14T14:09:14.527Z,98194.17
2023-03-14T14:12:07.410Z,98187.28
2023-03-14T14:14:28.887Z,98169.05
2023-03-14T14:17:05.468Z,98200.30
2023-03-14T14:19:43.729Z,98148.44
2023-03-14T14:22:17.407Z,98223.58
2023-03-14T14:24:53.048Z,98182.99
2023-03-14T14:27:33.201Z,98157.92
2023-03-14T14:30:28.348Z,98209.78
2023-03-14T14:33:21.283Z,98194.22
2023-03-14T14:35:59.580Z,98165.66
2023-03-14T14:38:35.934Z,98212.28
2023-03-14T14:41:10.524Z,98212.38
2023-03-14T14:43:47.026Z,98157.02
2023-03-14T14:49:17.579Z,98176.12
2023-03-14T14:51:54.010Z,98230.48
2023-03-14T14:54:42.418Z,98242.59
2023-03-14T14:57:23.063Z,98220.14
2023-03-14T15:00:01.484Z,98231.33
2023-03-14T15:02:46.687Z,98161.28
2023-03-14T15:05:23.681Z,98221.80
2023-03-14T15:07:58.805Z,98176.83
2023-03-14T15:10:33.817Z,98187.20
2023-03-14T15:13:08.422Z,98178.53
2023-03-14T15:15:41.873Z,98196.67
2023-03-14T15:18:20.617Z,98201.02
2023-03-14T15:20:55.420Z,98187.20
2023-03-14T15:23:28.549Z,98196.67
2023-03-14T15:26:20.328Z,98220.84
2023-03-14T15:28:59.008Z,98166.39
2023-03-14T15:31:32.187Z,98209.57
2023-03-14T15:34:05.805Z,98208.73
2023-03-14T15:36:45.598Z,98198.37
2023-03-14T15:39:31.691Z,98214.77
2023-03-14T15:42:24.449Z,98167.25
2023-03-14T15:44:59.347Z,98213.91
2023-03-14T15:47:34.673Z,98194.86
2023-03-14T15:50:10.855Z,98183.59
2023-03-14T15:52:52.131Z,98244.12
2023-03-14T15:58:28.493Z,98200.11
2023-03-14T16:01:12.694Z,98207.81
2023-03-14T16:03:50.027Z,98210.36
2023-03-14T16:06:26.669Z,98232.00
2023-03-14T16:09:01.398Z,98213.91
2023-03-14T16:11:36.174Z,98239.72
2023-03-14T16:14:09.702Z,98218.11
2023-03-14T16:16:43.251Z,98231.02
2023-03-14T16:19:16.444Z,98245.73
2023-03-14T16:21:53.536Z,98246.55
2023-03-14T16:24:31.514Z,98242.22
2023-03-14T16:27:08.454Z,98295.81
2023-03-14T16:29:50.161Z,98245.67
2023-03-14T16:32:26.214Z,98249.10
2023-03-14T16:35:01.448Z,98273.32
2023-03-14T16:37:34.952Z,98272.47
2023-03-14T16:40:13.035Z,98316.53
2023-03-14T16:43:14.582Z,98309.63
2023-03-14T16:45:24.836Z,98249.99
2023-03-14T16:47:58.214Z,98268.98
2023-03-14T16:50:37.913Z,98322.55
2023-03-14T16:53:16.592Z,98270.70
2023-03-14T16:55:54.434Z,98252.43
2023-03-14T16:58:27.989Z,98317.19
2023-03-14T17:01:03.652Z,98298.31
2023-03-14T17:03:37.102Z,98361.34
2023-03-14T17:06:13.515Z,98273.16
2023-03-14T17:09:04.205Z,98297.31
2023-03-14T17:17:55.568Z,98328.38
2023-03-14T17:20:30.891Z,98305.06
2023-03-14T17:23:04.189Z,98331.83
2023-03-14T17:25:40.422Z,98327.46
2023-03-14T17:31:04.432Z,98298.22
2023-03-14T17:33:47.795Z,98312.75
2023-03-14T17:36:24.897Z,98297.22
2023-03-14T17:38:58.638Z,98293.71
2023-03-14T17:41:31.883Z,98287.67
2023-03-14T17:44:06.788Z,98288.54
2023-03-14T17:46:42.391Z,98286.83
2023-03-14T17:49:15.545Z,98309.17
2023-03-14T17:51:54.394Z,98244.34
2023-03-14T17:54:27.785Z,98274.55
2023-03-14T17:57:00.965Z,98306.45
2023-03-14T17:59:34.532Z,98316.89
2023-03-14T18:02:08.530Z,98286.65
2023-03-14T18:04:41.826Z,98275.41
2023-03-14T18:07:15.282Z,98290.12
2023-03-14T18:09:52.124Z,98324.77
2023-03-14T18:12:28.842Z,98304.79
2023-03-14T18:15:06.405Z,98336.78
2023-03-14T18:17:43.947Z,98288.41
2023-03-14T18:42:26.197Z,98295.20
2023-03-14T18:44:59.475Z,98292.50
2023-03-14T18:47:36.223Z,98291.64
2023-03-14T18:50:13.698Z,98283.91
2023-03-14T18:52:48.389Z,98289.06
2023-03-14T18:55:22.803Z,98280.48
2023-03-14T18:57:55.885Z,98310.69
2023-03-14T19:00:30.800Z,98277.91
2023-03-14T19:03:04.424Z,98302.94
2023-03-14T19:05:39.515Z,98282.22
2023-03-14T19:08:32.999Z,98279.67
2023-03-14T19:11:08.097Z,98300.44
2023-03-14T19:13:42.409Z,98316.89
2023-03-14T19:16:17.108Z,98277.14
2023-03-14T19:18:54.463Z,98294.35
2023-03-14T19:21:32.744Z,98318.56
2023-03-14T19:24:07.304Z,98322.91
2023-03-14T19:26:40.559Z,98301.27
2023-03-14T19:29:13.868Z,98318.55
2023-03-14T19:31:47.305Z,98364.34
2023-03-14T19:34:21.338Z,98360.92
2023-03-14T19:36:55.014Z,98335.02
2023-03-14T19:39:28.437Z,98328.97
2023-03-14T19:42:03.275Z,98348.94
2023-03-14T19:44:36.482Z,98359.16
2023-03-14T19:47:09.611Z,98349.63
2023-03-14T19:49:42.949Z,98341.81
2023-03-14T19:52:18.341Z,98375.52
2023-03-14T19:54:54.935Z,98344.39
2023-03-14T19:57:28.700Z,98387.56
2023-03-14T20:00:05.153Z,98318.50
2023-03-14T20:02:42.573Z,98345.17
2023-03-14T20:05:19.776Z,98364.17
2023-03-14T20:07:54.301Z,98325.19
2023-03-14T20:10:27.593Z,98363.95
2023-03-14T20:15:49.155Z,98334.75
2023-03-14T20:18:24.132Z,98359.59
2023-03-14T20:20:57.359Z,98353.43
2023-03-14T20:23:30.930Z,98374.19
2023-03-14T20:26:04.776Z,98333.60
2023-03-14T20:28:42.053Z,98335.25
2023-03-14T20:31:16.211Z,98393.95
2023-03-14T20:33:51.425Z,98352.61
2023-03-14T20:36:25.312Z,98356.06
2023-03-14T20:38:58.544Z,98340.51
2023-03-14T20:41:31.876Z,98330.03
2023-03-14T20:44:05.259Z,98345.55
2023-03-14T20:46:38.526Z,98358.48
2023-03-14T20:49:11.983Z,98327.45
2023-03-14T20:51:57.682Z,98344.65
2023-03-14T20:54:39.624Z,98342.98
2023-03-14T20:57:15.591Z,98344.62
2023-03-14T20:59:48.799Z,98374.83
2023-03-14T21:02:22.067Z,98360.25
2023-03-14T21:04:56.938Z,98369.83
2023-03-14T21:07:34.433Z,98364.64
2023-03-14T21:10:11.336Z,98358.67
2023-03-14T21:12:44.629Z,98374.36
2023-03-14T21:15:18.296Z,98367.45
2023-03-14T21:17:53.776Z,98355.26
2023-03-14T21:20:26.982Z,98367.45
2023-03-14T21:23:00.673Z,98397.67
2023-03-14T21:25:34.752Z,98377.79
2023-03-14T21:28:08.089Z,98344.19
2023-03-14T21:30:41.404Z,98370.04
2023-03-14T21:33:15.759Z,98361.37
2023-03-14T21:35:49.685Z,98374.30
2023-03-14T21:38:23.166Z,98347.69
2023-03-14T21:41:00.016Z,98338.15
2023-03-14T21:43:33.833Z,98350.25
2023-03-14T21:46:07.295Z,98399.58
2023-03-14T21:48:40.591Z,98387.53
2023-03-14T21:51:13.958Z,98376.29
2023-03-14T21:53:47.103Z,98380.61
2023-03-14T21:56:20.445Z,98361.64
2023-03-14T21:58:55.762Z,98365.92
2023-03-14T22:01:29.058Z,98375.46
2023-03-14T22:04:02.565Z,98404.72
2023-03-14T22:06:35.862Z,98343.46
2023-03-14T22:09:09.152Z,98344.27
2023-03-14T22:11:45.045Z,98359.78
2023-03-14T22:14:18.387Z,98383.89
2023-03-14T22:16:51.770Z,98379.59
2023-03-14T22:19:25.040Z,98333.05
2023-03-14T22:21:58.396Z,98354.54
2023-03-14T22:24:31.675Z,98327.00
2023-03-14T22:27:04.969Z,98398.73
2023-03-14T22:29:38.484Z,98350.41
2023-03-14T22:32:13.043Z,98337.39
2023-03-14T22:34:46.743Z,98352.88
2023-03-14T22:37:20.508Z,98326.97
2023-03-14T22:39:54.049Z,98390.05
2023-03-14T22:42:27.604Z,98366.83
2023-03-14T22:45:01.112Z,98342.59
2023-03-14T22:47:34.696Z,98389.19
2023-03-14T22:50:10.116Z,98367.67
2023-03-14T22:52:43.556Z,98326.25
2023-03-14T22:55:17.158Z,98378.82
2023-03-14T22:57:53.750Z,98364.97
2023-03-14T23:00:28.096Z,98390.97
2023-03-14T23:03:01.925Z,98376.29
2023-03-14T23:05:35.359Z,98361.58
2023-03-14T23:08:09.031Z,98354.63
2023-03-14T23:10:43.360Z,98368.39
2023-03-14T23:13:16.789Z,98383.08
2023-03-14T23:15:50.480Z,98374.47
2023-03-14T23:18:25.600Z,98395.18
2023-03-14T23:21:10.001Z,98367.48
2023-03-14T23:23:46.770Z,98337.30
2023-03-14T23:26:23.449Z,98342.28
2023-03-14T23:28:57.602Z,98406.18
2023-03-14T23:31:32.514Z,98370.01
2023-03-14T23:34:05.994Z,98385.54
2023-03-14T23:36:39.610Z,98382.84
2023-03-14T23:39:13.790Z,98371.59
2023-03-14T23:41:47.353Z,98370.73
2023-03-14T23:44:20.769Z,98380.20
2023-03-14T23:46:54.241Z,98382.84
2023-03-14T23:49:27.467Z,98358.67
2023-03-14T23:52:00.896Z,98396.64
2023-03-14T23:54:34.277Z,98350.08
2023-03-14T23:57:10.374Z,98386.38
2023-03-14T23:59:43.877Z,98363.09
